Time;durP1;ratioP1;P1;durP2;ratioP2;P2;SDS_P1;SDS_P2;PMS_P1;PMS_P2;Temp;Humidity;BMP_temperature;BMP_pressure;BME280_temperature;BME280_humidity;BME280_pressure;Samples;Min_cycle;Max_cycle;Signal;HPM_P1;HPM_P2
2021/04/22 00:00:53;;;;;;;21.25;14.70;;;7.40;99.90;;;;;;5008230;28;20124;-81
2021/04/22 00:03:25;;;;;;;27.83;15.38;;;7.40;99.90;;;;;;5010956;28;20535;-81
2021/04/22 00:05:53;;;;;;;23.05;15.05;;;7.40;99.90;;;;;;5016785;28;20115;-82
2021/04/22 00:08:23;;;;;;;19.83;15.23;;;7.40;99.90;;;;;;5018212;28;20136;-83
2021/04/22 00:10:52;;;;;;;23.00;15.32;;;7.40;99.90;;;;;;5030542;28;20114;-82
2021/04/22 00:13:24;;;;;;;22.33;14.80;;;7.50;99.90;;;;;;5015172;28;20077;-81
2021/04/22 00:15:52;;;;;;;22.83;15.13;;;7.50;99.90;;;;;;5034917;28;20064;-83
2021/04/22 00:18:19;;;;;;;26.13;15.48;;;7.70;99.90;;;;;;5014535;28;20144;-83
2021/04/22 00:20:46;;;;;;;20.20;13.95;;;7.80;99.90;;;;;;5017109;28;20321;-82
2021/04/22 00:23:14;;;;;;;21.00;14.63;;;8.00;99.90;;;;;;5015967;28;20466;-82
2021/04/22 00:25:41;;;;;;;23.85;14.93;;;8.10;99.90;;;;;;5015833;28;20140;-83
2021/04/22 00:28:09;;;;;;;25.33;14.55;;;8.20;99.90;;;;;;5026796;28;20049;-82
2021/04/22 00:30:37;;;;;;;19.70;14.00;;;8.30;99.90;;;;;;5017520;28;20443;-82
2021/04/22 00:33:08;;;;;;;21.02;13.82;;;8.30;99.90;;;;;;5016025;28;20073;-82
2021/04/22 00:35:36;;;;;;;26.13;14.60;;;8.30;99.90;;;;;;5008835;28;20108;-83
2021/04/22 00:38:03;;;;;;;25.17;13.95;;;8.30;99.90;;;;;;5016614;28;20054;-82
2021/04/22 00:40:30;;;;;;;21.70;14.00;;;8.30;99.90;;;;;;5017775;28;20136;-82
2021/04/22 00:43:06;;;;;;;18.52;14.25;;;8.20;99.90;;;;;;5026896;28;20046;-82
2021/04/22 00:45:33;;;;;;;22.48;13.75;;;8.20;99.90;;;;;;5014512;28;20493;-82
2021/04/22 00:48:00;;;;;;;20.23;13.38;;;8.10;99.90;;;;;;5034185;28;20446;-81
2021/04/22 00:50:32;;;;;;;19.73;13.60;;;8.10;99.90;;;;;;5016607;28;20336;-82
2021/04/22 00:53:00;;;;;;;24.02;14.40;;;8.10;99.90;;;;;;5030841;28;20073;-81
2021/04/22 00:55:28;;;;;;;22.30;14.68;;;8.10;99.90;;;;;;5015767;28;20053;-82
2021/04/22 00:57:55;;;;;;;21.92;14.57;;;8.10;99.90;;;;;;5034293;28;20204;-82
2021/04/22 01:00:30;;;;;;;24.75;16.38;;;8.20;99.90;;;;;;5016601;28;20053;-82
2021/04/22 01:02:59;;;;;;;23.60;15.75;;;8.30;99.90;;;;;;5033565;28;20159;-82
2021/04/22 01:05:32;;;;;;;25.55;16.35;;;8.30;99.90;;;;;;5008282;28;20072;-82
2021/04/22 01:08:00;;;;;;;23.25;15.32;;;8.40;99.90;;;;;;5034379;28;20124;-81
2021/04/22 01:10:27;;;;;;;23.38;15.27;;;8.30;99.90;;;;;;5017560;28;20129;-82
2021/04/22 01:12:56;;;;;;;21.20;15.05;;;8.20;99.90;;;;;;5031856;28;20115;-81
2021/04/22 01:15:27;;;;;;;22.30;16.15;;;8.20;99.90;;;;;;5023262;28;20052;-83
2021/04/22 01:17:55;;;;;;;23.35;16.10;;;8.20;99.90;;;;;;5033001;28;20095;-83
2021/04/22 01:20:26;;;;;;;21.17;14.65;;;8.10;99.90;;;;;;5034192;28;20111;-82
2021/04/22 01:22:55;;;;;;;24.13;16.38;;;8.00;99.90;;;;;;5034384;28;20103;-82
2021/04/22 01:25:30;;;;;;;24.08;16.70;;;8.10;99.90;;;;;;5006353;28;20180;-82
2021/04/22 01:27:58;;;;;;;24.98;17.33;;;8.20;99.90;;;;;;5028973;28;20136;-82
2021/04/22 01:30:35;;;;;;;24.02;17.23;;;8.20;99.90;;;;;;5015345;28;20479;-82
2021/04/22 01:33:05;;;;;;;23.65;17.63;;;8.30;99.90;;;;;;5013036;28;20085;-82
2021/04/22 01:35:35;;;;;;;22.13;16.95;;;8.40;99.90;;;;;;5022040;28;20053;-82
2021/04/22 01:38:02;;;;;;;23.70;17.38;;;8.40;99.90;;;;;;5036699;28;20204;-82
2021/04/22 01:40:29;;;;;;;22.85;17.17;;;8.40;99.90;;;;;;5016236;28;20459;-82
2021/04/22 01:42:55;;;;;;;24.65;17.33;;;8.30;99.90;;;;;;5031828;28;20046;-82
2021/04/22 01:45:25;;;;;;;24.38;17.13;;;8.30;99.90;;;;;;5013620;28;20136;-83
2021/04/22 01:47:53;;;;;;;23.98;16.85;;;8.30;99.90;;;;;;5034226;28;20103;-83
2021/04/22 01:50:23;;;;;;;25.85;18.58;;;8.20;99.90;;;;;;5014920;28;20347;-83
2021/04/22 01:52:49;;;;;;;25.08;18.25;;;8.20;99.90;;;;;;5015667;28;20081;-81
2021/04/22 01:55:21;;;;;;;29.77;19.80;;;8.30;99.90;;;;;;5009230;28;20133;-82
2021/04/22 01:57:48;;;;;;;26.77;21.05;;;8.40;99.90;;;;;;5008039;28;20336;-81
2021/04/22 02:00:24;;;;;;;28.48;20.40;;;8.40;99.90;;;;;;5015108;28;20157;-82
2021/04/22 02:02:51;;;;;;;26.42;20.15;;;8.50;99.90;;;;;;5041184;28;20140;-82
2021/04/22 02:05:17;;;;;;;25.48;19.25;;;8.60;99.90;;;;;;5018811;28;20420;-83
2021/04/22 02:07:46;;;;;;;22.60;17.08;;;8.70;99.90;;;;;;5011811;28;20053;-82
2021/04/22 02:10:13;;;;;;;23.80;17.45;;;8.60;99.90;;;;;;5010509;28;20049;-82
2021/04/22 02:12:39;;;;;;;27.27;17.95;;;8.60;99.90;;;;;;5015903;28;20120;-82
2021/04/22 02:15:08;;;;;;;24.20;18.02;;;8.40;99.90;;;;;;5022771;28;20077;-82
2021/04/22 02:17:35;;;;;;;24.55;18.10;;;8.40;99.90;;;;;;5032477;28;20041;-83
2021/04/22 02:20:05;;;;;;;28.85;19.30;;;8.30;99.90;;;;;;5015213;28;20442;-82
2021/04/22 02:22:31;;;;;;;30.70;23.15;;;8.20;99.90;;;;;;5032696;28;20045;-82
2021/04/22 02:24:57;;;;;;;30.02;22.67;;;8.10;99.90;;;;;;5014319;28;20077;-82
2021/04/22 02:27:32;;;;;;;33.75;24.45;;;8.10;99.90;;;;;;5008792;28;20196;-82
2021/04/22 02:29:59;;;;;;;32.83;24.80;;;8.20;99.90;;;;;;5016324;28;20108;-81
2021/04/22 02:32:28;;;;;;;36.45;26.00;;;8.20;99.90;;;;;;5032150;28;20052;-83
2021/04/22 02:34:55;;;;;;;37.17;26.33;;;8.30;99.90;;;;;;5016020;28;20104;-82
2021/04/22 02:37:22;;;;;;;37.35;26.70;;;8.40;99.90;;;;;;5013463;28;20080;-82
2021/04/22 02:39:52;;;;;;;33.92;26.58;;;8.40;99.90;;;;;;5015858;28;20050;-82
2021/04/22 02:42:18;;;;;;;38.35;28.35;;;8.40;99.90;;;;;;5032628;28;20136;-82
2021/04/22 02:44:45;;;;;;;41.72;28.00;;;8.50;99.90;;;;;;5014296;28;20128;-81
2021/04/22 02:47:11;;;;;;;45.22;27.98;;;8.50;99.90;;;;;;5012419;28;20477;-82
2021/04/22 02:49:38;;;;;;;40.22;27.63;;;8.50;99.90;;;;;;5035101;28;20132;-82
2021/04/22 02:52:04;;;;;;;39.33;28.10;;;8.40;99.90;;;;;;4998997;28;20056;-82
2021/04/22 02:54:31;;;;;;;42.22;27.90;;;8.50;99.90;;;;;;5013187;28;20068;-82
2021/04/22 02:57:00;;;;;;;41.83;29.88;;;8.50;99.90;;;;;;5031581;28;20047;-81
2021/04/22 02:59:27;;;;;;;41.88;29.92;;;8.50;99.90;;;;;;5010933;28;20050;-81
2021/04/22 03:01:53;;;;;;;39.35;28.77;;;8.50;99.90;;;;;;5015304;28;20072;-81
2021/04/22 03:04:20;;;;;;;44.45;31.17;;;8.60;99.90;;;;;;5001908;28;20155;-82
2021/04/22 03:06:47;;;;;;;43.42;30.00;;;8.60;99.90;;;;;;5010866;28;20065;-81
2021/04/22 03:09:14;;;;;;;44.42;31.40;;;8.50;99.90;;;;;;5023001;28;20084;-81
2021/04/22 03:11:40;;;;;;;45.70;33.38;;;8.50;99.90;;;;;;5032764;28;20081;-81
2021/04/22 03:14:07;;;;;;;49.83;33.45;;;8.40;99.90;;;;;;5032375;28;20058;-81
2021/04/22 03:16:34;;;;;;;52.80;34.03;;;8.40;99.90;;;;;;5015132;28;20136;-82
2021/04/22 03:19:03;;;;;;;50.92;35.53;;;8.30;99.90;;;;;;5013002;28;20053;-82
2021/04/22 03:21:29;;;;;;;52.70;38.92;;;8.20;99.90;;;;;;5015018;28;20128;-83
2021/04/22 03:23:58;;;;;;;58.17;38.83;;;8.20;99.90;;;;;;5015267;28;20150;-82
2021/04/22 03:26:24;;;;;;;53.83;37.78;;;8.10;99.90;;;;;;5015264;28;20077;-82
2021/04/22 03:28:51;;;;;;;56.58;38.97;;;8.00;99.90;;;;;;5034094;28;20124;-81
2021/04/22 03:31:17;;;;;;;63.08;41.72;;;8.00;99.90;;;;;;5014973;28;20167;-81
2021/04/22 03:33:43;;;;;;;56.58;39.30;;;7.90;99.90;;;;;;4998636;28;20053;-81
2021/04/22 03:36:10;;;;;;;59.67;41.30;;;7.90;99.90;;;;;;5001215;28;20064;-81
2021/04/22 03:38:38;;;;;;;59.80;42.88;;;7.80;99.90;;;;;;5017483;28;20111;-82
2021/04/22 03:41:04;;;;;;;70.32;44.00;;;7.70;99.90;;;;;;5002522;28;20065;-82
2021/04/22 03:43:31;;;;;;;63.85;44.17;;;7.60;99.90;;;;;;5017910;28;20151;-81
2021/04/22 03:45:57;;;;;;;76.15;45.22;;;7.50;99.90;;;;;;5035983;28;20417;-82
2021/04/22 03:48:26;;;;;;;73.05;46.03;;;7.50;99.90;;;;;;5025736;28;20064;-82
2021/04/22 03:50:55;;;;;;;71.35;47.67;;;7.50;99.90;;;;;;5013456;28;20088;-83
2021/04/22 03:53:22;;;;;;;74.35;47.47;;;7.40;99.90;;;;;;5001747;28;20059;-81
2021/04/22 03:55:48;;;;;;;74.82;48.60;;;7.40;99.90;;;;;;5012124;28;20450;-81
2021/04/22 03:58:15;;;;;;;74.10;49.60;;;7.40;99.90;;;;;;5035276;28;20096;-82
2021/04/22 04:00:41;;;;;;;74.57;48.47;;;7.30;99.90;;;;;;4996447;28;20410;-82
2021/04/22 04:03:10;;;;;;;77.20;47.75;;;7.30;99.90;;;;;;5011120;28;20136;-82
2021/04/22 04:05:39;;;;;;;69.63;46.95;;;7.20;99.90;;;;;;5017682;28;20064;-82
2021/04/22 04:08:06;;;;;;;78.97;48.88;;;7.20;99.90;;;;;;5001101;28;20059;-82
2021/04/22 04:10:32;;;;;;;72.85;48.15;;;7.30;99.90;;;;;;4996084;28;20054;-81
2021/04/22 04:12:58;;;;;;;71.70;49.05;;;7.30;99.90;;;;;;5032969;28;20150;-83
2021/04/22 04:15:25;;;;;;;73.78;47.97;;;7.30;99.90;;;;;;5015421;28;20139;-82
2021/04/22 04:17:51;;;;;;;65.65;45.85;;;7.40;99.90;;;;;;5017884;28;20085;-81
2021/04/22 04:20:20;;;;;;;70.00;46.60;;;7.40;99.90;;;;;;4991095;28;20060;-83
2021/04/22 04:22:50;;;;;;;67.72;43.78;;;7.40;99.90;;;;;;5033538;28;20127;-83
2021/04/22 04:25:17;;;;;;;63.92;44.15;;;7.50;99.90;;;;;;5034553;28;20057;-82
2021/04/22 04:27:43;;;;;;;60.92;41.63;;;7.40;99.90;;;;;;5017197;28;20103;-82
2021/04/22 04:30:15;;;;;;;63.40;41.60;;;7.30;99.90;;;;;;5027263;28;20078;-82
2021/04/22 04:32:42;;;;;;;62.17;40.15;;;7.30;99.90;;;;;;5010128;28;20042;-80
2021/04/22 04:35:10;;;;;;;65.43;42.35;;;7.30;99.90;;;;;;5032576;28;20060;-80
2021/04/22 04:37:36;;;;;;;57.80;39.70;;;7.30;99.90;;;;;;5011611;28;20046;-82
2021/04/22 04:40:05;;;;;;;59.28;39.85;;;7.30;99.90;;;;;;5011480;28;20088;-80
2021/04/22 04:42:32;;;;;;;59.13;39.65;;;7.30;99.90;;;;;;5027416;28;20069;-81
2021/04/22 04:44:59;;;;;;;53.35;37.97;;;7.30;99.90;;;;;;5032349;28;20059;-81
2021/04/22 04:47:38;;;;;;;58.05;38.10;;;7.30;99.90;;;;;;5024429;28;20393;-80
2021/04/22 04:50:17;;;;;;;60.33;38.00;;;7.30;99.90;;;;;;5032020;28;20136;-80
2021/04/22 04:53:00;;;;;;;55.65;36.97;;;7.40;99.90;;;;;;5018882;28;20053;-80
2021/04/22 04:55:27;;;;;;;60.75;38.75;;;7.40;99.90;;;;;;5021700;28;20160;-80
2021/04/22 04:57:55;;;;;;;58.95;38.88;;;7.40;99.90;;;;;;5033847;28;20156;-79
2021/04/22 05:00:22;;;;;;;62.78;39.58;;;7.40;99.90;;;;;;4997254;28;20124;-81
2021/04/22 05:02:49;;;;;;;58.00;38.88;;;7.40;99.90;;;;;;5009541;28;20046;-82
2021/04/22 05:05:16;;;;;;;64.60;40.78;;;7.50;99.90;;;;;;4997623;28;20108;-82
2021/04/22 05:07:43;;;;;;;64.13;42.72;;;7.50;99.90;;;;;;5006866;28;20350;-82
2021/04/22 05:10:10;;;;;;;68.20;43.78;;;7.50;99.90;;;;;;5024542;28;20141;-81
2021/04/22 05:12:40;;;;;;;66.40;43.50;;;7.60;99.90;;;;;;5032567;28;20428;-82
2021/04/22 05:15:08;;;;;;;64.25;43.38;;;7.60;99.90;;;;;;5032302;28;20045;-83
2021/04/22 05:17:37;;;;;;;70.32;45.47;;;7.70;99.90;;;;;;5032910;28;20124;-83
2021/04/22 05:20:06;;;;;;;64.75;44.85;;;7.80;99.90;;;;;;4999362;28;20049;-82
2021/04/22 05:22:41;;;;;;;69.55;44.20;;;7.80;99.90;;;;;;5004890;28;20409;-83
2021/04/22 05:25:10;;;;;;;70.35;43.60;;;7.90;99.90;;;;;;5013953;28;20159;-83
2021/04/22 05:27:37;;;;;;;59.03;41.53;;;7.90;99.90;;;;;;5010454;28;20115;-82
2021/04/22 05:30:05;;;;;;;64.88;43.08;;;8.10;99.90;;;;;;5032944;28;20057;-82
2021/04/22 05:32:39;;;;;;;62.53;40.92;;;8.10;99.90;;;;;;5027211;28;20088;-83
2021/04/22 05:35:09;;;;;;;58.17;39.88;;;8.10;99.90;;;;;;5014407;28;20408;-83
2021/04/22 05:37:48;;;;;;;60.20;40.35;;;8.20;99.90;;;;;;5028980;28;20140;-82
2021/04/22 05:40:15;;;;;;;57.83;39.42;;;8.20;99.90;;;;;;5030581;28;20045;-82
2021/04/22 05:42:45;;;;;;;59.58;40.65;;;8.30;99.90;;;;;;5014035;28;20050;-83
2021/04/22 05:45:14;;;;;;;58.00;39.05;;;8.40;99.90;;;;;;5028539;28;20041;-85
2021/04/22 05:47:40;;;;;;;52.05;37.63;;;8.40;99.90;;;;;;5014308;28;20053;-82
2021/04/22 05:50:08;;;;;;;54.58;37.85;;;8.40;99.90;;;;;;5005428;28;20135;-86
2021/04/22 05:52:40;;;;;;;60.13;38.75;;;8.40;99.90;;;;;;5032286;28;20456;-86
2021/04/22 05:55:08;;;;;;;51.30;36.53;;;8.40;99.90;;;;;;5002344;28;20168;-87
2021/04/22 05:57:40;;;;;;;53.97;36.35;;;8.50;99.90;;;;;;5038183;28;20033;-87
2021/04/22 06:00:09;;;;;;;;;;;8.50;99.90;;;;;;5019996;28;20069;-85
2021/04/22 06:02:38;;;;;;;49.90;33.00;;;8.60;99.90;;;;;;5017342;28;19999;-86
2021/04/22 06:05:08;;;;;;;51.53;33.85;;;8.60;99.90;;;;;;5001337;28;20041;-86
2021/04/22 06:07:41;;;;;;;48.72;32.58;;;8.70;99.90;;;;;;5015696;28;20122;-87
2021/04/22 06:10:10;;;;;;;55.55;33.70;;;8.70;99.90;;;;;;5032698;28;20049;-85
2021/04/22 06:12:40;;;;;;;44.53;30.77;;;8.80;99.90;;;;;;4998267;28;20466;-86
2021/04/22 06:15:10;;;;;;;45.67;31.60;;;9.00;99.90;;;;;;5030636;28;20049;-85
2021/04/22 06:17:39;;;;;;;46.38;32.13;;;9.10;99.90;;;;;;5013407;28;20041;-86
2021/04/22 06:20:11;;;;;;;43.88;30.38;;;9.20;99.90;;;;;;5012783;28;20115;-85
2021/04/22 06:22:38;;;;;;;26.50;19.63;;;9.40;99.90;;;;;;5033722;28;20041;-86
2021/04/22 06:25:05;;;;;;;38.20;27.95;;;9.70;99.90;;;;;;5033677;28;20120;-87
2021/04/22 06:27:34;;;;;;;44.80;30.00;;;9.80;99.90;;;;;;5016586;28;20439;-85
2021/04/22 06:30:04;;;;;;;38.90;27.35;;;9.80;99.90;;;;;;5031047;28;20146;-86
2021/04/22 06:32:45;;;;;;;36.80;27.33;;;10.00;99.90;;;;;;5034635;28;20061;-86
2021/04/22 06:35:16;;;;;;;36.78;26.88;;;10.10;99.90;;;;;;5034617;28;20136;-88
2021/04/22 06:37:43;;;;;;;39.08;27.58;;;10.30;99.90;;;;;;5017429;28;20112;-85
2021/04/22 06:40:15;;;;;;;40.13;26.08;;;10.30;99.90;;;;;;5016061;28;20183;-86
2021/04/22 06:42:53;;;;;;;37.72;25.48;;;10.40;99.90;;;;;;5033891;28;20049;-86
2021/04/22 06:45:35;;;;;;;39.70;25.95;;;10.70;99.90;;;;;;5016246;28;20057;-85
2021/04/22 06:48:05;;;;;;;33.25;26.50;;;11.00;99.90;;;;;;5011507;28;20446;-87
2021/04/22 06:50:47;;;;;;;39.03;25.42;;;11.00;99.90;;;;;;5016058;28;20056;-87
2021/04/22 06:53:14;;;;;;;35.70;26.73;;;11.10;99.90;;;;;;5018426;28;20057;-86
2021/04/22 06:55:41;;;;;;;33.60;25.08;;;10.90;99.90;;;;;;5018426;28;20053;-85
2021/04/22 06:58:08;;;;;;;35.60;25.27;;;11.00;99.90;;;;;;5016965;28;20244;-87
2021/04/22 07:00:43;;;;;;;34.13;25.27;;;11.20;99.90;;;;;;5015244;28;20107;-87
2021/04/22 07:03:12;;;;;;;37.03;25.30;;;11.10;99.90;;;;;;5008197;28;20086;-87
2021/04/22 07:05:41;;;;;;;36.22;25.70;;;11.10;99.90;;;;;;5019197;28;20128;-87
2021/04/22 07:08:08;;;;;;;34.92;25.08;;;11.10;99.90;;;;;;4999813;28;20379;-89
2021/04/22 07:10:35;;;;;;;38.13;25.40;;;11.00;99.90;;;;;;5030979;28;20057;-87
2021/04/22 07:13:06;;;;;;;34.17;25.77;;;10.70;99.90;;;;;;5019905;28;20073;-85
2021/04/22 07:15:38;;;;;;;37.35;25.10;;;10.50;99.90;;;;;;5019531;28;20053;-87
2021/04/22 07:18:10;;;;;;;;;;;10.50;99.90;;;;;;5036652;28;20065;-87
2021/04/22 07:20:36;;;;;;;38.90;25.65;;;10.60;99.90;;;;;;5019705;28;19947;-84
2021/04/22 07:23:06;;;;;;;39.63;25.38;;;10.80;99.90;;;;;;5019088;28;20053;-86
2021/04/22 07:25:36;;;;;;;38.17;25.75;;;10.90;99.90;;;;;;5019224;28;20061;-86
2021/04/22 07:28:05;;;;;;;38.83;24.85;;;11.30;99.90;;;;;;5037145;28;20053;-87
2021/04/22 07:30:38;;;;;;;34.22;24.40;;;11.70;99.90;;;;;;5018883;28;20069;-86
2021/04/22 07:33:06;;;;;;;35.60;24.33;;;11.80;99.90;;;;;;5036157;28;20045;-86
2021/04/22 07:35:34;;;;;;;41.13;25.90;;;11.90;99.90;;;;;;5018189;28;20053;-84
2021/04/22 07:38:02;;;;;;;37.05;23.08;;;12.20;99.90;;;;;;5032196;28;20093;-85
2021/04/22 07:40:34;;;;;;;34.53;25.13;;;12.40;99.90;;;;;;5017595;28;20392;-86
2021/04/22 07:43:08;;;;;;;32.70;22.88;;;13.00;99.90;;;;;;5030029;28;20046;-84
2021/04/22 07:45:37;;;;;;;33.08;21.38;;;13.50;99.90;;;;;;5017640;28;20042;-85
2021/04/22 07:48:06;;;;;;;26.15;21.05;;;14.10;92.70;;;;;;5018517;28;20383;-85
2021/04/22 07:50:34;;;;;;;24.55;19.70;;;14.30;92.70;;;;;;5036893;28;20111;-85
2021/04/22 07:53:07;;;;;;;29.08;20.38;;;14.80;85.10;;;;;;5022077;28;20072;-85
2021/04/22 07:55:41;;;;;;;28.75;20.80;;;15.00;85.10;;;;;;5017044;28;20049;-85
2021/04/22 07:58:10;;;;;;;30.83;20.58;;;14.70;87.10;;;;;;5033823;28;20045;-84
2021/04/22 08:00:41;;;;;;;28.88;20.38;;;14.30;85.60;;;;;;5017588;28;20364;-85
2021/04/22 08:03:12;;;;;;;31.20;20.15;;;14.00;87.00;;;;;;5018482;28;20049;-87
2021/04/22 08:05:44;;;;;;;32.15;20.52;;;14.00;90.90;;;;;;5004932;28;20069;-89
2021/04/22 08:08:12;;;;;;;31.98;20.48;;;13.90;91.40;;;;;;5033494;28;20072;-87
2021/04/22 08:10:42;;;;;;;28.95;21.00;;;13.90;87.00;;;;;;5017179;28;20132;-87
2021/04/22 08:13:11;;;;;;;29.77;21.02;;;13.10;93.80;;;;;;5015235;28;20128;-87
2021/04/22 08:15:38;;;;;;;27.10;19.83;;;12.80;94.80;;;;;;5018358;28;20049;-85
2021/04/22 08:18:09;;;;;;;28.48;21.15;;;12.90;94.80;;;;;;5017394;28;20053;-86
2021/04/22 08:20:36;;;;;;;26.00;18.88;;;12.70;96.90;;;;;;5000144;28;20045;-85
2021/04/22 08:23:06;;;;;;;29.00;20.55;;;13.10;92.10;;;;;;5034477;28;20041;-85
2021/04/22 08:25:45;;;;;;;28.42;19.83;;;13.00;93.30;;;;;;5033386;28;20049;-86
2021/04/22 08:28:14;;;;;;;27.35;19.85;;;12.90;93.70;;;;;;5034288;28;20509;-85
2021/04/22 08:30:54;;;;;;;30.10;20.33;;;12.60;95.50;;;;;;5034026;28;20119;-85
2021/04/22 08:33:37;;;;;;;28.58;19.83;;;12.60;95.70;;;;;;5017298;28;20051;-87
2021/04/22 08:36:08;;;;;;;29.45;19.77;;;12.50;98.40;;;;;;5017036;28;20383;-86
2021/04/22 08:38:35;;;;;;;29.17;20.35;;;12.30;98.80;;;;;;5017229;28;20045;-83
2021/04/22 08:41:05;;;;;;;30.70;19.45;;;12.20;97.50;;;;;;5016907;28;20056;-85
2021/04/22 08:43:37;;;;;;;27.65;19.08;;;12.30;98.80;;;;;;5015863;28;20045;-85
2021/04/22 08:46:05;;;;;;;36.22;19.45;;;12.20;98.20;;;;;;5015099;28;20060;-84
2021/04/22 08:48:36;;;;;;;26.90;17.45;;;12.30;99.90;;;;;;5017020;28;20480;-85
2021/04/22 08:51:05;;;;;;;23.73;17.23;;;12.40;98.50;;;;;;5016556;28;20073;-84
2021/04/22 08:53:34;;;;;;;28.05;17.92;;;12.10;95.90;;;;;;5017162;28;20053;-84
2021/04/22 08:56:01;;;;;;;25.75;16.75;;;12.30;98.70;;;;;;5035021;28;20112;-85
2021/04/22 08:58:32;;;;;;;24.17;16.05;;;12.20;96.50;;;;;;5034139;28;20121;-84
2021/04/22 09:01:13;;;;;;;26.00;17.00;;;12.10;99.40;;;;;;5033921;28;20046;-84
2021/04/22 09:03:44;;;;;;;30.65;16.63;;;12.20;99.90;;;;;;5015923;28;20045;-84
2021/04/22 09:06:14;;;;;;;26.00;16.58;;;12.20;94.30;;;;;;5018057;28;20053;-84
2021/04/22 09:08:44;;;;;;;27.48;16.15;;;12.10;96.30;;;;;;5016095;28;20045;-84
2021/04/22 09:11:23;;;;;;;25.75;16.60;;;11.90;98.90;;;;;;5014270;28;20083;-84
2021/04/22 09:13:50;;;;;;;29.08;16.98;;;12.00;99.90;;;;;;5011033;28;20049;-84
2021/04/22 09:16:27;;;;;;;27.33;15.63;;;12.60;93.60;;;;;;5039699;28;20052;-83
2021/04/22 09:19:06;;;;;;;25.30;14.75;;;13.10;92.20;;;;;;5029978;28;20050;-84
2021/04/22 09:21:40;;;;;;;24.35;15.25;;;13.40;85.50;;;;;;5007799;28;20045;-83
2021/04/22 09:24:11;;;;;;;28.02;14.65;;;13.40;88.20;;;;;;5033142;28;20076;-85
2021/04/22 09:26:51;;;;;;;25.35;13.82;;;13.20;85.20;;;;;;5032326;28;20384;-84
2021/04/22 09:29:35;;;;;;;24.40;14.63;;;13.10;84.60;;;;;;5008283;28;20120;-84
2021/04/22 09:32:16;;;;;;;22.48;14.43;;;13.30;89.90;;;;;;5015825;28;20481;-85
2021/04/22 09:34:45;;;;;;;25.60;13.45;;;14.70;83.30;;;;;;5012846;28;20057;-85
2021/04/22 09:37:12;;;;;;;19.90;13.05;;;15.60;78.10;;;;;;5015050;28;20129;-85
2021/04/22 09:39:39;;;;;;;19.17;12.80;;;16.60;68.10;;;;;;5033514;28;20045;-85
2021/04/22 09:42:09;;;;;;;25.75;12.77;;;16.60;66.10;;;;;;4999651;28;20080;-85
2021/04/22 09:44:40;;;;;;;22.63;13.57;;;16.00;67.10;;;;;;5028579;28;20049;-86
2021/04/22 09:47:14;;;;;;;18.13;13.30;;;15.60;67.50;;;;;;5011945;28;20151;-83
2021/04/22 09:49:46;;;;;;;18.40;12.60;;;16.30;65.00;;;;;;5026304;28;20497;-83
2021/04/22 09:52:15;;;;;;;18.85;11.55;;;17.60;64.10;;;;;;5032591;28;20064;-83
2021/04/22 09:54:50;;;;;;;20.08;11.98;;;18.80;58.70;;;;;;5032446;28;20053;-83
2021/04/22 09:57:41;;;;;;;15.13;11.00;;;19.20;54.90;;;;;;5024532;28;20056;-83
2021/04/22 10:00:13;;;;;;;18.13;11.20;;;19.60;52.10;;;;;;5011643;28;20041;-83
2021/04/22 10:02:57;;;;;;;23.35;11.73;;;19.40;52.00;;;;;;5031449;28;20115;-83
2021/04/22 10:05:31;;;;;;;23.70;13.05;;;19.70;53.80;;;;;;5031131;28;20049;-82
2021/04/22 10:08:09;;;;;;;18.67;10.93;;;20.90;50.30;;;;;;5032653;28;20121;-81
2021/04/22 10:10:41;;;;;;;17.33;11.55;;;21.40;48.80;;;;;;5031872;28;20080;-82
2021/04/22 10:13:20;;;;;;;18.13;12.00;;;21.30;50.30;;;;;;5032277;28;20063;-82
2021/04/22 10:15:55;;;;;;;18.98;11.77;;;21.70;47.60;;;;;;5031012;28;20454;-82
2021/04/22 10:18:38;;;;;;;18.38;11.57;;;22.30;47.50;;;;;;4994925;28;20038;-82
2021/04/22 10:21:05;;;;;;;18.67;10.75;;;22.90;43.30;;;;;;5031608;28;20443;-81
2021/04/22 10:23:35;;;;;;;16.70;11.15;;;22.40;44.50;;;;;;5032168;28;20091;-82
2021/04/22 10:26:02;;;;;;;18.80;11.30;;;22.00;44.80;;;;;;5013988;28;20470;-83
2021/04/22 10:28:37;;;;;;;16.67;11.48;;;22.10;45.80;;;;;;5028202;28;20049;-84
2021/04/22 10:31:04;;;;;;;16.38;10.95;;;21.90;47.10;;;;;;5029988;28;20136;-82
2021/04/22 10:33:33;;;;;;;15.07;11.30;;;21.10;48.70;;;;;;5030578;28;20053;-84
2021/04/22 10:36:00;;;;;;;21.27;10.95;;;20.30;51.00;;;;;;5011596;28;20347;-85
2021/04/22 10:38:42;;;;;;;14.95;10.77;;;21.40;48.50;;;;;;5011327;28;20411;-84
2021/04/22 10:41:08;;;;;;;17.63;11.25;;;22.40;44.40;;;;;;5026282;28;20144;-84
2021/04/22 10:43:40;;;;;;;18.42;11.40;;;23.00;42.90;;;;;;5007672;28;20045;-85
2021/04/22 10:46:36;;;;;;;14.52;10.45;;;22.80;42.80;;;;;;5014164;28;20051;-83
2021/04/22 10:49:04;;;;;;;20.27;11.68;;;21.20;46.80;;;;;;4999601;28;20078;-81
2021/04/22 10:51:31;;;;;;;16.05;11.25;;;21.50;44.60;;;;;;5025314;28;20087;-81
2021/04/22 10:54:01;;;;;;;16.98;11.02;;;21.50;44.40;;;;;;5012847;28;20052;-83
2021/04/22 10:56:36;;;;;;;16.40;10.50;;;21.80;44.60;;;;;;5030249;28;20374;-84
2021/04/22 10:59:18;;;;;;;15.88;11.23;;;22.20;45.00;;;;;;5030011;28;20057;-84
2021/04/22 11:01:44;;;;;;;17.20;11.38;;;22.50;44.60;;;;;;5013754;28;20482;-84
2021/04/22 11:04:11;;;;;;;19.15;10.70;;;22.60;44.10;;;;;;5010674;28;20144;-83
2021/04/22 11:06:47;;;;;;;18.67;10.63;;;23.40;41.00;;;;;;5011882;28;20046;-83
2021/04/22 11:09:34;;;;;;;17.13;10.50;;;23.70;42.00;;;;;;4996903;28;20111;-84
2021/04/22 11:12:06;;;;;;;18.35;11.35;;;23.80;42.10;;;;;;5025818;28;20450;-83
2021/04/22 11:14:53;;;;;;;17.48;11.15;;;24.30;39.20;;;;;;5013939;28;20364;-83
2021/04/22 11:17:21;;;;;;;22.77;10.95;;;23.00;41.00;;;;;;5025759;28;20042;-86
2021/04/22 11:19:52;;;;;;;15.57;10.15;;;22.50;45.00;;;;;;5029127;28;20041;-84
2021/04/22 11:22:20;;;;;;;18.35;10.32;;;23.30;43.10;;;;;;5012589;28;20465;-85
2021/04/22 11:24:59;;;;;;;17.55;11.43;;;22.90;43.00;;;;;;5011930;28;20056;-84
2021/04/22 11:27:33;;;;;;;18.70;10.05;;;22.60;41.70;;;;;;5025395;28;20108;-83
2021/04/22 11:30:06;;;;;;;14.82;10.40;;;23.20;43.00;;;;;;5005956;28;20136;-87
2021/04/22 11:32:36;;;;;;;18.23;11.48;;;23.90;41.80;;;;;;5008939;28;20109;-89
2021/04/22 11:35:05;;;;;;;15.98;11.20;;;25.00;36.50;;;;;;5030050;28;20123;-89
2021/04/22 11:37:33;;;;;;;20.10;11.45;;;24.80;39.10;;;;;;5005805;28;20050;-88
2021/04/22 11:40:18;;;;;;;16.13;10.23;;;25.10;36.10;;;;;;5010291;28;20128;-88
2021/04/22 11:42:58;;;;;;;16.77;10.90;;;24.70;38.70;;;;;;5024698;28;20450;-88
2021/04/22 11:45:47;;;;;;;14.95;10.65;;;23.60;40.00;;;;;;5012863;28;20045;-87
2021/04/22 11:48:16;;;;;;;15.18;10.52;;;23.50;39.70;;;;;;5012008;28;20045;-88
2021/04/22 11:51:05;;;;;;;16.85;10.52;;;23.80;39.90;;;;;;5014754;28;20130;-88
2021/04/22 11:53:39;;;;;;;19.08;10.15;;;24.60;38.70;;;;;;5010446;28;20050;-87
2021/04/22 11:56:11;;;;;;;16.27;10.27;;;25.80;35.70;;;;;;5029953;28;20115;-88
2021/04/22 11:58:39;;;;;;;11.95;9.30;;;26.40;35.50;;;;;;5032383;28;20065;-88
2021/04/22 12:01:08;;;;;;;14.10;8.88;;;26.60;34.20;;;;;;5009670;28;20103;-90
2021/04/22 12:03:36;;;;;;;16.17;9.50;;;26.60;36.30;;;;;;5009115;28;20447;-88
2021/04/22 12:06:08;;;;;;;13.77;8.55;;;27.30;32.10;;;;;;5033574;28;20045;-89
2021/04/22 12:08:42;;;;;;;16.02;10.27;;;26.30;33.00;;;;;;5032137;28;20057;-89
2021/04/22 12:11:13;;;;;;;11.98;9.95;;;25.60;35.20;;;;;;5036024;28;20125;-86
2021/04/22 12:13:44;;;;;;;12.55;9.57;;;25.20;35.20;;;;;;5007273;28;20238;-89
2021/04/22 12:16:17;;;;;;;11.48;8.35;;;25.60;34.50;;;;;;5026546;28;20115;-89
2021/04/22 12:18:48;;;;;;;11.88;7.95;;;25.80;33.20;;;;;;4999839;28;20053;-85
2021/04/22 12:21:22;;;;;;;11.60;7.65;;;25.30;31.40;;;;;;5031541;28;20041;-85
2021/04/22 12:23:54;;;;;;;12.98;6.43;;;25.40;33.50;;;;;;5016594;28;20207;-88
2021/04/22 12:26:45;;;;;;;11.77;6.25;;;26.50;31.40;;;;;;5030855;28;20041;-89
2021/04/22 12:29:20;;;;;;;10.15;5.60;;;25.80;31.50;;;;;;5026827;28;20112;-87
2021/04/22 12:31:57;;;;;;;12.73;5.68;;;25.00;30.90;;;;;;5014616;28;20041;-87
2021/04/22 12:34:48;;;;;;;12.10;5.57;;;25.70;30.70;;;;;;5031643;28;20041;-88
2021/04/22 12:37:14;;;;;;;10.45;5.10;;;26.80;29.80;;;;;;5015959;28;20081;-89
2021/04/22 12:39:51;;;;;;;11.48;4.85;;;26.70;30.60;;;;;;5016868;28;20419;-87
2021/04/22 12:42:34;;;;;;;9.40;4.43;;;26.80;28.70;;;;;;5034012;28;20064;-90
2021/04/22 12:45:09;;;;;;;6.68;4.10;;;26.10;29.60;;;;;;5016277;28;20065;-87
2021/04/22 12:47:46;;;;;;;9.55;4.20;;;25.80;28.50;;;;;;5008760;28;20080;-88
2021/04/22 12:50:29;;;;;;;6.50;3.80;;;26.50;27.40;;;;;;5010502;28;20049;-86